Time;durP1;ratioP1;P1;durP2;ratioP2;P2;SDS_P1;SDS_P2;PMS_P1;PMS_P2;Temp;Humidity;BMP_temperature;BMP_pressure;BME280_temperature;BME280_humidity;BME280_pressure;Samples;Min_cycle;Max_cycle;Signal;HPM_P1;HPM_P2
2023/01/22 00:01:07;;;;;;;44.70;25.80;;;;;;;3.27;95.60;100841.52;105463;1258;75901;-73
2023/01/22 00:03:35;;;;;;;52.40;27.60;;;;;;;3.30;95.56;100840.45;105429;1254;72362;-73
2023/01/22 00:06:02;;;;;;;50.00;28.60;;;;;;;3.24;95.64;100838.39;105530;1257;71086;-71
2023/01/22 00:08:29;;;;;;;53.50;29.70;;;;;;;3.19;96.00;100840.09;105437;1257;61671;-74
2023/01/22 00:10:56;;;;;;;58.50;28.60;;;;;;;3.17;95.87;100846.00;105461;1254;62260;-70
2023/01/22 00:13:24;;;;;;;53.80;27.40;;;;;;;3.24;96.03;100846.27;105237;1254;75942;-72
2023/01/22 00:15:51;;;;;;;54.10;28.90;;;;;;;3.33;95.88;100845.70;105224;1259;70446;-71
2023/01/22 00:18:18;;;;;;;54.70;29.70;;;;;;;3.34;96.19;100850.88;105443;1254;73730;-71
2023/01/22 00:20:46;;;;;;;57.40;29.70;;;;;;;3.32;96.21;100851.19;105428;1256;62405;-71
2023/01/22 00:23:13;;;;;;;51.30;27.20;;;;;;;3.30;96.13;100853.45;105565;1254;60590;-72
2023/01/22 00:25:41;;;;;;;52.20;27.80;;;;;;;3.41;96.06;100856.94;105504;1254;76486;-71
2023/01/22 00:28:07;;;;;;;52.20;27.60;;;;;;;3.50;95.85;100861.13;105449;1254;72506;-68
2023/01/22 00:30:34;;;;;;;56.10;30.30;;;;;;;3.49;95.64;100862.26;105396;1254;73032;-71
2023/01/22 00:33:01;;;;;;;54.90;29.20;;;;;;;3.44;95.74;100864.84;105267;1259;60406;-72
2023/01/22 00:35:28;;;;;;;49.50;27.30;;;;;;;3.41;95.77;100862.73;105368;1260;62156;-72
2023/01/22 00:37:55;;;;;;;50.30;27.40;;;;;;;3.44;95.15;100867.81;105474;1254;75394;-72
2023/01/22 00:40:22;;;;;;;48.40;26.10;;;;;;;3.44;94.91;100868.48;105276;1254;71075;-74
2023/01/22 00:42:49;;;;;;;46.50;25.70;;;;;;;3.34;95.07;100870.86;105391;1256;71698;-72
2023/01/22 00:45:16;;;;;;;43.40;26.00;;;;;;;3.25;95.34;100875.45;105235;1258;60617;-72
2023/01/22 00:47:43;;;;;;;47.50;26.60;;;;;;;3.18;95.44;100872.52;105569;1260;61500;-71
2023/01/22 00:50:10;;;;;;;45.00;24.60;;;;;;;3.22;95.30;100871.25;105572;1257;75940;-74
2023/01/22 00:52:37;;;;;;;47.20;25.50;;;;;;;3.27;95.18;100872.00;105556;1260;71342;-73
2023/01/22 00:55:05;;;;;;;46.90;26.00;;;;;;;3.23;95.51;100877.86;105523;1254;74588;-72
2023/01/22 00:57:32;;;;;;;45.80;24.60;;;;;;;3.18;95.68;100885.48;105530;1254;62206;-74
2023/01/22 00:59:58;;;;;;;46.70;24.40;;;;;;;3.17;95.72;100886.46;105363;1258;60529;-74
2023/01/22 01:02:28;;;;;;;42.90;24.60;;;;;;;3.24;95.48;100889.67;105520;1254;76192;-74
2023/01/22 01:04:55;;;;;;;40.50;23.80;;;;;;;3.31;95.39;100890.50;105405;1254;72189;-74
2023/01/22 01:07:22;;;;;;;42.40;24.40;;;;;;;3.30;95.83;100893.19;105526;1256;74057;-72
2023/01/22 01:09:49;;;;;;;41.50;24.60;;;;;;;3.27;95.67;100892.98;105629;1254;61812;-76
2023/01/22 01:12:16;;;;;;;44.00;24.80;;;;;;;3.26;96.27;100891.84;107226;1254;60371;-75
2023/01/22 01:14:43;;;;;;;41.10;23.30;;;;;;;3.33;95.59;100894.04;106562;1257;74706;-76
2023/01/22 01:17:10;;;;;;;39.40;21.80;;;;;;;3.35;95.22;100893.54;105466;1253;70594;-75
2023/01/22 01:19:37;;;;;;;40.60;21.50;;;;;;;3.29;95.34;100899.20;105525;1260;71756;-75
2023/01/22 01:22:05;;;;;;;43.10;23.60;;;;;;;3.19;95.47;100900.68;105724;1254;63106;-75
2023/01/22 01:24:31;;;;;;;40.10;22.40;;;;;;;3.12;95.93;100898.77;106108;1260;60525;-77
2023/01/22 01:26:58;;;;;;;41.90;22.60;;;;;;;3.20;95.79;100900.94;106791;1254;73635;-77
2023/01/22 01:29:27;;;;;;;42.90;24.90;;;;;;;3.28;95.83;100901.89;105483;1260;72609;-71
2023/01/22 01:31:56;;;;;;;39.90;22.90;;;;;;;3.27;95.92;100904.55;105437;1260;74840;-75
2023/01/22 01:34:23;;;;;;;44.90;25.00;;;;;;;3.22;95.67;100906.23;105361;1260;62430;-75
2023/01/22 01:36:50;;;;;;;39.30;23.40;;;;;;;3.17;96.04;100909.56;105227;1254;62738;-77
2023/01/22 01:39:17;;;;;;;35.10;21.50;;;;;;;3.22;95.90;100905.58;105699;1258;73861;-76
2023/01/22 01:41:45;;;;;;;44.10;24.10;;;;;;;3.30;96.08;100909.61;105530;1258;71289;-74
2023/01/22 01:44:15;;;;;;;40.80;23.90;;;;;;;3.32;96.47;100908.79;105571;1255;74729;-73
2023/01/22 01:46:45;;;;;;;43.70;25.60;;;;;;;3.33;96.34;100913.49;105457;1254;61301;-75
2023/01/22 01:49:28;;;;;;;40.60;24.40;;;;;;;3.32;96.34;100916.34;105485;1256;60566;-75
2023/01/22 01:51:57;;;;;;;36.80;22.30;;;;;;;3.41;96.08;100912.28;105196;1254;73744;-74
2023/01/22 01:54:23;;;;;;;36.60;22.10;;;;;;;3.46;95.73;100912.21;105498;1255;72402;-73
2023/01/22 01:56:53;;;;;;;40.30;23.00;;;;;;;3.44;95.89;100914.07;105199;1260;72364;-74
2023/01/22 01:59:20;;;;;;;37.80;23.20;;;;;;;3.41;96.15;100918.11;105420;1259;62850;-73
2023/01/22 02:01:50;;;;;;;34.40;20.50;;;;;;;3.34;95.89;100914.79;105445;1258;62507;-74
2023/01/22 02:04:18;;;;;;;35.60;21.20;;;;;;;3.39;95.28;100916.66;105271;1254;74073;-73
2023/01/22 02:06:45;;;;;;;33.20;21.20;;;;;;;3.41;95.31;100913.73;105516;1260;71651;-73
2023/01/22 02:09:12;;;;;;;38.40;23.00;;;;;;;3.33;95.45;100913.81;105294;1256;74493;-75
2023/01/22 02:11:39;;;;;;;39.00;23.90;;;;;;;3.28;95.60;100916.04;105343;1254;61105;-75
2023/01/22 02:14:08;;;;;;;40.30;22.60;;;;;;;3.26;95.93;100918.84;105484;1254;60455;-76
2023/01/22 02:16:35;;;;;;;34.00;22.20;;;;;;;3.33;95.60;100923.43;105620;1258;76026;-75
2023/01/22 02:19:02;;;;;;;37.40;21.20;;;;;;;3.41;95.56;100929.62;105214;1260;69591;-75
2023/01/22 02:21:30;;;;;;;39.90;22.50;;;;;;;3.41;95.66;100926.14;105189;1261;71940;-73
2023/01/22 02:23:58;;;;;;;37.00;23.40;;;;;;;3.40;96.02;100929.86;105459;1256;62390;-76
2023/01/22 02:26:25;;;;;;;39.60;23.60;;;;;;;3.39;95.76;100929.59;105605;1255;62227;-73
2023/01/22 02:28:52;;;;;;;34.40;20.80;;;;;;;3.43;95.51;100935.11;105085;1260;74180;-73
2023/01/22 02:31:20;;;;;;;34.80;22.30;;;;;;;3.49;95.28;100937.72;105317;1255;72464;-71
2023/01/22 02:33:47;;;;;;;35.20;22.70;;;;;;;3.49;95.66;100942.83;105256;1257;72967;-71
2023/01/22 02:36:15;;;;;;;38.10;22.80;;;;;;;3.47;95.68;100944.70;105408;1256;60542;-70
2023/01/22 02:38:42;;;;;;;37.70;21.10;;;;;;;3.43;95.66;100941.75;105524;1261;62663;-74
2023/01/22 02:41:08;;;;;;;37.80;21.40;;;;;;;3.48;95.08;100944.30;105543;1254;73069;-71
2023/01/22 02:43:36;;;;;;;35.70;21.30;;;;;;;3.51;95.06;100944.29;106231;1260;72396;-72
2023/01/22 02:46:03;;;;;;;36.20;22.30;;;;;;;3.48;95.14;100946.92;107740;1256;73205;-72
2023/01/22 02:48:30;;;;;;;37.00;19.90;;;;;;;3.43;95.36;100951.04;107792;1254;60372;-77
2023/01/22 02:50:57;;;;;;;33.40;20.30;;;;;;;3.41;95.19;100952.44;108474;1254;61179;-77
2023/01/22 02:53:24;;;;;;;29.20;18.50;;;;;;;3.46;95.00;100949.16;106089;1258;73033;-79
2023/01/22 02:55:51;;;;;;;31.50;19.10;;;;;;;3.45;94.85;100951.65;106079;1256;70118;-78
2023/01/22 02:58:18;;;;;;;31.50;19.70;;;;;;;3.39;95.37;100958.98;105988;1260;75088;-76
2023/01/22 03:00:45;;;;;;;29.80;18.00;;;;;;;3.32;95.34;100957.15;105852;1254;62335;-77
2023/01/22 03:03:14;;;;;;;28.30;17.10;;;;;;;3.33;95.19;100952.67;106072;1260;60297;-77
2023/01/22 03:05:49;;;;;;;30.80;20.30;;;;;;;3.37;95.43;100949.50;105313;1254;74792;-77
2023/01/22 03:08:17;;;;;;;29.00;18.80;;;;;;;3.34;95.53;100954.02;105609;1260;72585;-78
2023/01/22 03:10:44;;;;;;;34.40;18.60;;;;;;;3.29;95.55;100959.45;105449;1256;72409;-74
2023/01/22 03:21:29;;;;;;;32.10;19.00;;;;;;;3.15;95.63;100964.12;105486;1254;72655;-76
2023/01/22 03:23:56;;;;;;;32.50;17.30;;;;;;;3.08;96.10;100962.73;105547;1260;73560;-77
2023/01/22 03:26:23;;;;;;;26.80;16.60;;;;;;;3.13;96.05;100969.83;105547;1254;62636;-75
2023/01/22 03:28:50;;;;;;;31.20;17.20;;;;;;;3.15;95.89;100971.63;105164;1256;318763;-73
2023/01/22 03:32:41;;;;;;;30.20;18.10;;;;;;;3.10;96.49;100974.38;102393;1297;599393;-73
2023/01/22 03:35:09;;;;;;;29.60;18.40;;;;;;;3.05;96.35;100974.33;104543;1273;62598;-74
2023/01/22 03:37:47;;;;;;;29.60;17.90;;;;;;;3.12;95.88;100979.66;104504;1268;60504;-73
2023/01/22 03:40:13;;;;;;;27.20;17.50;;;;;;;3.18;96.08;100984.27;104865;1272;71228;-75
2023/01/22 03:42:41;;;;;;;27.70;16.50;;;;;;;3.13;96.12;100987.31;105002;1264;72113;-76
2023/01/22 03:45:08;;;;;;;29.10;17.30;;;;;;;3.09;96.52;100986.88;105162;1263;72572;-74
2023/01/22 03:47:36;;;;;;;24.50;15.00;;;;;;;3.03;96.28;100990.88;105047;1261;61309;-74
2023/01/22 03:50:15;;;;;;;20.90;14.00;;;;;;;3.10;95.97;100990.15;104943;1267;62520;-74
2023/01/22 03:52:42;;;;;;;24.30;15.00;;;;;;;3.12;96.03;100989.64;105010;1260;71458;-74
2023/01/22 03:55:09;;;;;;;22.50;14.50;;;;;;;3.07;96.35;100996.61;105032;1261;72509;-76
2023/01/22 03:57:36;;;;;;;23.80;14.80;;;;;;;3.00;96.64;100994.92;105011;1271;74405;-74
2023/01/22 04:00:06;;;;;;;21.30;14.20;;;;;;;3.01;96.42;100997.18;105033;1260;63606;-74
2023/01/22 04:02:38;;;;;;;21.70;13.20;;;;;;;3.10;96.08;100998.52;105221;1267;60953;-73
2023/01/22 04:05:10;;;;;;;21.10;13.50;;;;;;;3.06;96.26;101004.91;105789;1263;75196;-74
2023/01/22 04:07:38;;;;;;;22.70;14.00;;;;;;;2.99;96.37;101009.32;105424;1257;71532;-75
2023/01/22 04:10:05;;;;;;;23.10;13.40;;;;;;;2.94;96.24;101009.39;105192;1257;74989;-74
2023/01/22 04:12:32;;;;;;;21.00;13.20;;;;;;;3.03;96.14;101018.38;105792;1257;62683;-75
2023/01/22 04:14:59;;;;;;;20.00;14.00;;;;;;;3.09;96.07;101016.44;105236;1263;59666;-75
2023/01/22 04:17:26;;;;;;;19.90;13.50;;;;;;;3.04;96.29;101021.42;105233;1257;73069;-74
2023/01/22 04:20:16;;;;;;;21.90;14.30;;;;;;;3.00;96.18;101021.51;105245;1260;71112;-76
2023/01/22 04:22:58;;;;;;;18.00;12.00;;;;;;;3.10;96.36;101027.20;105359;1257;72810;-73
2023/01/22 04:25:26;;;;;;;19.10;12.10;;;;;;;3.14;96.01;101033.48;105518;1257;62275;-72
2023/01/22 04:27:53;;;;;;;18.70;13.00;;;;;;;3.11;96.25;101032.23;105339;1262;62655;-75
2023/01/22 04:30:20;;;;;;;18.70;12.30;;;;;;;3.08;96.24;101032.59;105486;1259;75152;-73
2023/01/22 04:32:53;;;;;;;16.20;11.80;;;;;;;3.15;95.74;101039.04;105183;1263;71315;-74
2023/01/22 04:35:26;;;;;;;16.40;11.20;;;;;;;3.22;95.34;101044.96;105170;1260;74700;-73
2023/01/22 04:37:56;;;;;;;16.40;11.50;;;;;;;3.18;95.39;101051.27;105327;1256;60920;-73
2023/01/22 04:40:23;;;;;;;16.80;11.00;;;;;;;3.11;95.25;101054.51;105175;1257;61173;-74
2023/01/22 04:42:50;;;;;;;16.90;10.70;;;;;;;3.06;95.27;101052.34;105087;1262;73107;-73
2023/01/22 04:45:17;;;;;;;15.80;11.40;;;;;;;3.12;95.14;101053.53;105484;1257;72230;-73
2023/01/22 04:47:45;;;;;;;17.20;11.80;;;;;;;3.12;95.09;101047.42;105889;1257;74794;-73
2023/01/22 04:50:23;;;;;;;15.90;11.60;;;;;;;3.10;95.48;101049.48;105597;1260;59656;-73
2023/01/22 04:52:50;;;;;;;17.40;11.50;;;;;;;3.09;95.29;101052.34;105259;1257;61463;-73
2023/01/22 04:55:18;;;;;;;16.80;11.00;;;;;;;3.17;95.14;101055.16;105293;1257;73253;-74
2023/01/22 04:57:56;;;;;;;20.40;11.10;;;;;;;3.27;94.92;101060.77;105571;1263;70773;-73
2023/01/22 05:00:23;;;;;;;18.50;11.20;;;;;;;3.23;94.56;101060.83;105552;1257;74998;-75
2023/01/22 05:02:55;;;;;;;19.10;12.50;;;;;;;3.16;94.85;101063.48;105418;1257;61405;-74
2023/01/22 05:05:22;;;;;;;17.50;11.80;;;;;;;3.13;95.03;101065.22;105494;1257;61271;-74
2023/01/22 05:07:48;;;;;;;17.80;11.60;;;;;;;3.20;94.74;101061.14;105548;1257;72983;-75
2023/01/22 05:10:15;;;;;;;16.70;11.80;;;;;;;3.24;94.47;101061.60;105581;1258;70506;-74
2023/01/22 05:12:44;;;;;;;17.10;12.00;;;;;;;3.21;94.68;101063.02;105337;1260;74403;-74
2023/01/22 05:15:11;;;;;;;17.40;12.40;;;;;;;3.19;94.78;101065.05;105308;1257;61558;-75
2023/01/22 05:17:52;;;;;;;17.40;11.10;;;;;;;3.19;94.70;101067.49;105229;1263;61617;-75
2023/01/22 05:20:20;;;;;;;17.60;11.00;;;;;;;3.29;94.11;101069.91;105202;1257;72730;-74
2023/01/22 05:22:47;;;;;;;15.40;11.00;;;;;;;3.33;93.79;101070.56;105154;1262;70313;-74
2023/01/22 05:25:16;;;;;;;17.00;12.00;;;;;;;3.28;93.79;101073.82;105175;1257;74778;-73
2023/01/22 05:27:44;;;;;;;18.40;13.90;;;;;;;3.25;94.10;101078.41;105230;1257;59915;-70
2023/01/22 05:30:15;;;;;;;18.20;12.10;;;;;;;3.23;94.21;101076.73;105221;1259;61662;-73
2023/01/22 05:33:02;;;;;;;19.20;12.40;;;;;;;3.33;93.76;101080.38;105227;1257;75216;-74
2023/01/22 05:35:29;;;;;;;19.10;14.10;;;;;;;3.38;93.47;101082.73;105280;1257;68665;-75
2023/01/22 05:37:56;;;;;;;18.90;13.10;;;;;;;3.37;94.04;101087.85;105411;1257;72545;-74
2023/01/22 05:40:23;;;;;;;20.30;15.20;;;;;;;3.37;93.94;101087.19;105305;1260;60815;-72
2023/01/22 05:42:51;;;;;;;20.60;14.00;;;;;;;3.34;93.80;101088.52;105004;1257;61517;-74
2023/01/22 05:45:19;;;;;;;19.80;13.00;;;;;;;3.46;93.24;101097.86;105255;1257;73825;-72
2023/01/22 05:48:04;;;;;;;20.60;13.50;;;;;;;3.48;93.04;101095.98;105357;1260;70236;-74
2023/01/22 05:50:51;;;;;;;19.00;13.10;;;;;;;3.40;92.96;101105.89;105165;1260;75151;-72
2023/01/22 05:53:18;;;;;;;18.50;13.90;;;;;;;3.36;92.99;101106.98;105205;1260;59739;-72
2023/01/22 05:55:46;;;;;;;15.40;11.30;;;;;;;3.32;93.04;101105.97;105232;1262;60959;-72
2023/01/22 05:58:12;;;;;;;17.10;12.20;;;;;;;3.39;92.82;101111.74;105290;1257;73818;-71
2023/01/22 06:00:42;;;;;;;16.40;11.60;;;;;;;3.38;92.33;101114.08;105485;1256;72381;-72
2023/01/22 06:03:09;;;;;;;17.00;12.10;;;;;;;3.30;92.38;101116.45;105376;1262;73589;-71
2023/01/22 06:05:43;;;;;;;;;;;;;;;3.23;92.80;101120.52;105295;1257;59646;-72
2023/01/22 06:08:10;;;;;;;20.00;11.30;;;;;;;3.19;92.61;101123.17;105541;1259;62394;-72
2023/01/22 06:10:46;;;;;;;13.40;10.10;;;;;;;3.23;92.36;101122.11;105586;1257;73762;-73
2023/01/22 06:13:13;;;;;;;15.80;10.10;;;;;;;3.24;92.17;101121.84;105555;1257;72059;-73
2023/01/22 06:15:42;;;;;;;13.50;10.70;;;;;;;3.21;92.33;101131.11;105247;1259;72741;-75
2023/01/22 06:18:23;;;;;;;15.80;10.30;;;;;;;3.16;93.00;101139.45;105115;1260;60192;-72
2023/01/22 06:20:51;;;;;;;14.70;10.70;;;;;;;3.14;92.47;101147.29;105268;1257;60523;-75
2023/01/22 06:23:18;;;;;;;15.20;11.20;;;;;;;3.19;92.66;101150.15;105254;1257;75208;-73
2023/01/22 06:25:51;;;;;;;13.10;9.30;;;;;;;3.24;92.21;101156.17;105120;1257;70854;-76
2023/01/22 06:28:18;;;;;;;15.70;11.10;;;;;;;3.23;92.47;101161.98;105206;1257;71487;-77
2023/01/22 06:30:44;;;;;;;12.60;9.60;;;;;;;3.20;92.39;101164.63;105327;1257;59807;-77
2023/01/22 06:33:11;;;;;;;14.60;11.00;;;;;;;3.17;92.43;101165.69;105330;1257;60090;-78
2023/01/22 06:35:38;;;;;;;17.90;11.50;;;;;;;3.24;92.56;101171.05;105303;1259;72424;-76
2023/01/22 06:38:05;;;;;;;15.90;11.30;;;;;;;3.30;92.03;101171.79;105374;1261;71533;-75
2023/01/22 06:40:33;;;;;;;16.60;10.90;;;;;;;3.24;92.24;101169.28;105377;1255;73009;-79
2023/01/22 06:43:05;;;;;;;18.60;13.00;;;;;;;3.22;92.74;101167.16;105474;1254;60224;-75
2023/01/22 06:45:32;;;;;;;19.90;12.30;;;;;;;3.23;92.97;101168.13;105667;1254;60550;-78
2023/01/22 06:48:02;;;;;;;16.90;12.00;;;;;;;3.31;92.29;101172.90;105590;1254;74758;-78
2023/01/22 06:50:29;;;;;;;20.80;13.10;;;;;;;3.39;91.92;101175.82;105660;1254;70299;-77
2023/01/22 06:52:59;;;;;;;20.20;13.30;;;;;;;3.34;92.08;101175.71;105682;1256;71084;-76
2023/01/22 06:55:26;;;;;;;20.00;14.40;;;;;;;3.29;92.15;101177.26;105497;1260;59650;-76
2023/01/22 06:57:54;;;;;;;18.90;12.20;;;;;;;3.23;92.47;101176.17;106055;1254;59720;-76
2023/01/22 07:00:21;;;;;;;17.10;12.00;;;;;;;3.29;92.24;101180.96;106595;1254;74054;-74
2023/01/22 07:02:48;;;;;;;21.90;14.00;;;;;;;3.33;92.08;101185.75;106318;1259;72553;-73
2023/01/22 07:05:15;;;;;;;19.60;13.70;;;;;;;3.28;92.10;101183.42;105424;1261;73325;-73
2023/01/22 07:07:42;;;;;;;21.20;14.60;;;;;;;3.23;92.38;101185.50;105461;1256;59731;-76
2023/01/22 07:10:10;;;;;;;23.30;14.80;;;;;;;3.17;92.37;101188.25;105366;1254;61054;-76
2023/01/22 07:12:37;;;;;;;20.60;14.00;;;;;;;3.15;92.63;101193.94;105538;1254;75408;-76
2023/01/22 07:15:05;;;;;;;20.90;13.80;;;;;;;3.22;91.99;101195.17;105291;1254;71125;-75
2023/01/22 07:17:33;;;;;;;22.10;14.00;;;;;;;3.27;92.12;101192.39;109035;1253;73222;-76
2023/01/22 07:20:00;;;;;;;22.30;14.10;;;;;;;3.28;92.29;101192.55;106341;1256;60326;-76
2023/01/22 07:22:26;;;;;;;19.30;13.80;;;;;;;3.27;92.18;101193.69;105472;1254;61366;-77
2023/01/22 07:24:53;;;;;;;19.20;14.40;;;;;;;3.23;91.97;101193.52;105356;1254;74028;-76
2023/01/22 07:27:20;;;;;;;20.10;13.40;;;;;;;3.27;92.13;101192.77;105431;1254;71429;-76
2023/01/22 07:29:48;;;;;;;19.10;14.50;;;;;;;3.31;91.85;101197.45;107213;1254;73556;-77
2023/01/22 07:32:16;;;;;;;19.90;13.60;;;;;;;3.27;91.98;101196.25;106192;1260;61431;-76
2023/01/22 07:34:42;;;;;;;23.20;13.90;;;;;;;3.22;91.91;101195.19;106299;1253;60473;-76
2023/01/22 07:37:09;;;;;;;20.60;14.20;;;;;;;3.14;91.79;101196.64;106652;1253;74660;-76
2023/01/22 07:39:36;;;;;;;18.20;12.90;;;;;;;3.19;91.96;101196.88;106451;1254;70939;-75
2023/01/22 07:42:03;;;;;;;18.40;13.70;;;;;;;3.25;91.97;101198.16;106755;1254;73860;-77
2023/01/22 07:44:30;;;;;;;18.40;13.80;;;;;;;3.22;92.05;101200.42;105986;1259;61472;-76
2023/01/22 07:46:57;;;;;;;20.70;14.80;;;;;;;3.18;92.09;101201.17;106093;1254;62258;-73
2023/01/22 07:49:24;;;;;;;19.40;13.00;;;;;;;3.14;92.28;101205.06;106156;1254;73981;-76
2023/01/22 07:51:51;;;;;;;18.20;12.90;;;;;;;3.20;92.14;101205.08;106025;1254;71017;-77
2023/01/22 07:54:19;;;;;;;19.00;14.00;;;;;;;3.26;91.74;101203.67;105434;1254;72680;-77
2023/01/22 07:56:46;;;;;;;23.40;16.10;;;;;;;3.21;91.82;101202.59;105651;1254;60968;-77
2023/01/22 07:59:12;;;;;;;24.60;16.30;;;;;;;3.11;91.89;101203.64;105637;1253;60545;-76
2023/01/22 08:01:39;;;;;;;20.00;14.00;;;;;;;3.02;92.13;101206.39;105836;1254;75966;-76
2023/01/22 08:04:06;;;;;;;20.90;14.80;;;;;;;3.07;92.20;101208.25;105816;1260;71996;-76
2023/01/22 08:06:33;;;;;;;24.60;16.80;;;;;;;3.14;91.99;101210.30;105693;1254;74805;-78
2023/01/22 08:09:00;;;;;;;24.40;16.40;;;;;;;3.12;92.07;101211.98;106253;1255;62778;-76
2023/01/22 08:11:27;;;;;;;30.20;18.80;;;;;;;3.06;92.56;101212.68;106540;1253;61509;-75
2023/01/22 08:13:54;;;;;;;29.40;19.50;;;;;;;3.01;92.15;101213.79;106101;1254;74957;-76
2023/01/22 08:16:21;;;;;;;32.10;20.70;;;;;;;3.09;92.42;101220.58;105941;1254;71447;-76
2023/01/22 08:18:48;;;;;;;40.10;27.40;;;;;;;3.16;92.29;101224.20;106060;1257;71760;-75
2023/01/22 08:21:15;;;;;;;46.50;30.60;;;;;;;3.13;92.08;101229.42;105880;1253;62544;-76
2023/01/22 08:23:41;;;;;;;51.40;30.60;;;;;;;3.07;92.28;101234.11;105471;1260;60544;-75
2023/01/22 08:26:13;;;;;;;43.00;28.70;;;;;;;3.03;92.28;101239.61;105623;1254;75092;-76
2023/01/22 08:28:40;;;;;;;43.60;26.90;;;;;;;3.10;91.89;101240.11;105522;1258;70211;-76
2023/01/22 08:31:06;;;;;;;45.90;30.00;;;;;;;3.16;92.10;101244.66;105627;1257;74744;-76
2023/01/22 08:33:48;;;;;;;50.70;32.30;;;;;;;3.12;92.17;101250.14;105656;1255;62624;-76
2023/01/22 08:36:15;;;;;;;50.50;31.90;;;;;;;3.06;92.18;101252.73;105583;1259;60383;-77
2023/01/22 08:38:42;;;;;;;48.20;31.80;;;;;;;3.04;92.51;101247.64;105546;1254;74839;-77
2023/01/22 08:41:08;;;;;;;46.00;29.90;;;;;;;3.13;92.20;101249.56;105551;1254;70849;-77
2023/01/22 08:43:35;;;;;;;43.50;27.30;;;;;;;3.23;92.29;101253.08;105458;1254;71242;-77
2023/01/22 08:46:02;;;;;;;37.70;25.50;;;;;;;3.22;92.07;101251.17;105603;1258;59459;-77
2023/01/22 08:48:29;;;;;;;44.50;27.70;;;;;;;3.18;92.29;101256.67;105687;1254;60743;-75
2023/01/22 08:50:59;;;;;;;47.40;28.00;;;;;;;3.14;92.17;101256.37;105842;1254;73067;-77
2023/01/22 08:53:26;;;;;;;42.70;27.50;;;;;;;3.21;92.23;101245.82;105730;1254;70767;-77
2023/01/22 08:55:53;;;;;;;40.10;27.30;;;;;;;3.28;91.87;101245.58;105746;1257;74033;-76
2023/01/22 08:58:21;;;;;;;47.00;29.30;;;;;;;3.29;92.13;101247.80;106052;1254;60526;-77
2023/01/22 09:00:48;;;;;;;46.90;30.70;;;;;;;3.30;92.21;101249.50;106098;1254;61963;-76
2023/01/22 09:03:15;;;;;;;53.40;33.20;;;;;;;3.30;92.32;101249.52;106096;1254;75657;-77
2023/01/22 09:05:42;;;;;;;44.30;29.90;;;;;;;3.29;91.99;101249.24;105738;1257;71238;-76
2023/01/22 09:08:09;;;;;;;46.10;28.20;;;;;;;3.39;91.86;101249.05;105520;1254;74446;-76
2023/01/22 09:10:35;;;;;;;47.00;29.10;;;;;;;3.45;91.55;101264.29;105656;1255;61441;-76
2023/01/22 09:13:03;;;;;;;43.40;27.70;;;;;;;3.41;91.91;101269.05;106021;1254;60540;-76
2023/01/22 09:15:30;;;;;;;35.60;23.70;;;;;;;3.40;91.82;101268.09;106111;1254;76170;-76
2023/01/22 09:17:59;;;;;;;31.50;18.80;;;;;;;3.34;91.24;101270.34;108284;1254;70851;-76
2023/01/22 09:20:26;;;;;;;28.40;18.60;;;;;;;3.36;91.21;101268.98;108311;1254;70604;-75
2023/01/22 09:22:53;;;;;;;30.00;19.50;;;;;;;3.39;91.12;101262.88;106217;1259;61223;-77
2023/01/22 09:25:20;;;;;;;30.10;20.10;;;;;;;3.34;91.38;101266.44;106002;1254;60498;-77
2023/01/22 09:27:47;;;;;;;34.40;21.30;;;;;;;3.28;91.47;101271.71;105751;1253;74578;-77
2023/01/22 09:30:15;;;;;;;27.70;18.40;;;;;;;3.24;91.78;101280.16;105670;1254;71541;-76
2023/01/22 09:32:42;;;;;;;27.90;19.00;;;;;;;3.30;91.44;101280.88;105659;1253;73653;-76
2023/01/22 09:35:09;;;;;;;28.50;18.50;;;;;;;3.38;91.24;101282.34;105397;1254;60536;-76
2023/01/22 09:37:36;;;;;;;28.90;17.60;;;;;;;3.36;91.33;101279.46;105674;1253;60916;-77
2023/01/22 09:40:03;;;;;;;32.20;19.90;;;;;;;3.28;91.06;101269.93;105582;1254;75927;-76
2023/01/22 09:42:39;;;;;;;28.50;18.30;;;;;;;3.19;91.38;101267.61;105657;1254;70472;-78
2023/01/22 09:45:11;;;;;;;27.60;18.50;;;;;;;3.25;91.27;101270.48;105631;1254;71426;-77
2023/01/22 09:47:43;;;;;;;29.60;18.30;;;;;;;3.30;91.37;101272.46;105311;1254;60442;-77
2023/01/22 09:50:20;;;;;;;25.20;16.90;;;;;;;3.26;91.37;101274.09;105536;1255;60493;-76
2023/01/22 09:52:49;;;;;;;30.20;18.30;;;;;;;3.17;91.57;101276.33;105555;1255;75700;-78
2023/01/22 09:55:17;;;;;;;25.50;16.50;;;;;;;3.10;91.72;101285.81;105471;1254;72301;-76
2023/01/22 09:57:46;;;;;;;26.50;17.30;;;;;;;3.15;91.68;101282.91;105705;1254;74806;-77
2023/01/22 10:00:22;;;;;;;29.00;18.40;;;;;;;3.15;91.56;101278.70;105661;1253;62182;-77
2023/01/22 10:02:55;;;;;;;27.60;19.30;;;;;;;3.05;92.11;101279.74;105388;1260;62306;-77
2023/01/22 10:05:30;;;;;;;26.70;18.50;;;;;;;3.00;92.66;101276.02;105629;1258;74573;-76
2023/01/22 10:08:12;;;;;;;26.20;17.00;;;;;;;2.98;92.57;101272.27;105658;1256;69654;-78
2023/01/22 10:10:39;;;;;;;21.50;14.90;;;;;;;3.05;92.32;101273.63;105585;1254;75335;-75
2023/01/22 10:13:19;;;;;;;29.50;19.00;;;;;;;3.09;92.41;101276.59;105442;1253;60502;-77
2023/01/22 10:15:47;;;;;;;29.10;18.90;;;;;;;3.06;92.93;101280.25;105616;1254;60960;-77
2023/01/22 10:18:26;;;;;;;28.50;19.20;;;;;;;3.04;93.15;101276.69;105536;1259;75616;-77
2023/01/22 10:20:54;;;;;;;30.20;17.40;;;;;;;3.04;93.15;101286.66;105745;1259;71253;-76
2023/01/22 10:23:24;;;;;;;29.00;18.10;;;;;;;3.12;92.48;101282.15;106609;1254;72976;-75
2023/01/22 10:25:55;;;;;;;29.90;18.80;;;;;;;3.15;92.16;101281.67;107650;1260;59646;-76
2023/01/22 10:28:26;;;;;;;29.50;18.40;;;;;;;3.09;92.60;101279.72;107293;1254;61280;-76
2023/01/22 10:30:57;;;;;;;29.70;18.40;;;;;;;3.05;92.43;101277.86;105845;1259;72190;-77
2023/01/22 10:33:25;;;;;;;24.60;16.30;;;;;;;3.08;92.67;101281.02;105495;1254;71430;-76
2023/01/22 10:35:55;;;;;;;26.70;17.30;;;;;;;3.17;92.27;101275.79;105755;1254;72957;-76
2023/01/22 10:38:27;;;;;;;36.20;22.30;;;;;;;3.18;92.33;101274.36;105447;1254;61181;-77
2023/01/22 10:40:58;;;;;;;38.70;27.10;;;;;;;3.15;92.66;101275.91;105674;1254;60440;-77
2023/01/22 10:43:36;;;;;;;43.60;28.50;;;;;;;3.14;92.94;101278.58;105467;1259;75962;-76
2023/01/22 10:46:19;;;;;;;45.10;28.50;;;;;;;3.14;92.87;101280.86;105599;1254;72527;-76
2023/01/22 10:49:00;;;;;;;40.10;24.60;;;;;;;3.26;92.82;101285.30;105739;1254;74961;-76
2023/01/22 10:51:37;;;;;;;43.50;27.70;;;;;;;3.32;92.44;101289.49;106058;1254;60466;-76
2023/01/22 10:54:20;;;;;;;40.10;27.10;;;;;;;3.30;92.64;101291.56;105704;1254;60554;-76
2023/01/22 10:56:47;;;;;;;44.60;28.90;;;;;;;3.24;92.49;101288.76;105471;1254;73914;-77
2023/01/22 10:59:23;;;;;;;48.10;27.90;;;;;;;3.16;92.53;101294.73;105662;1258;72340;-76
2023/01/22 11:01:55;;;;;;;43.60;28.20;;;;;;;3.22;92.16;101291.30;105514;1254;74640;-77
2023/01/22 11:04:25;;;;;;;46.40;28.70;;;;;;;3.27;92.10;101288.54;105400;1263;62559;-76
2023/01/22 11:07:10;;;;;;;45.60;28.00;;;;;;;3.25;92.36;101291.10;105435;1254;61460;-76
2023/01/22 11:10:19;;;;;;;48.30;29.40;;;;;;;3.18;92.33;101290.29;105615;1254;73541;-77
2023/01/22 11:12:51;;;;;;;47.30;29.40;;;;;;;3.08;92.51;101290.63;105707;1254;70430;-76
2023/01/22 11:15:37;;;;;;;37.00;23.40;;;;;;;3.02;92.61;101287.09;106188;1252;73878;-76
2023/01/22 11:18:03;;;;;;;36.80;23.40;;;;;;;3.11;92.29;101285.05;106427;1254;63474;-76
2023/01/22 11:20:44;;;;;;;31.00;20.60;;;;;;;3.15;92.15;101280.98;105941;1254;61167;-76
2023/01/22 11:23:36;;;;;;;24.10;16.40;;;;;;;3.06;92.06;101279.04;105636;1258;75832;-76
2023/01/22 11:26:53;;;;;;;28.80;18.70;;;;;;;2.92;92.22;101279.91;106191;1258;70032;-78
2023/01/22 11:29:31;;;;;;;29.70;16.70;;;;;;;2.86;92.20;101278.29;105946;1259;72414;-76